sensor_id;sensor_type;location;lat;lon;timestamp;pressure;altitude;pressure_sealevel;temperature;humidity
58955;BME280;45815;52.334;5.024;2023-07-16T00:00:50;100724.41;;;16.76;100.00
58955;BME280;45815;52.334;5.024;2023-07-16T00:03:16;100727.97;;;16.80;100.00
58955;BME280;45815;52.334;5.024;2023-07-16T00:05:41;100727.97;;;16.80;100.00
58955;BME280;45815;52.334;5.024;2023-07-16T00:08:07;100727.09;;;16.79;100.00
58955;BME280;45815;52.334;5.024;2023-07-16T00:10:35;100724.47;;;16.75;100.00
58955;BME280;45815;52.334;5.024;2023-07-16T00:13:01;100723.59;;;16.71;100.00
58955;BME280;45815;52.334;5.024;2023-07-16T00:15:27;100708.63;;;16.64;100.00
58955;BME280;45815;52.334;5.024;2023-07-16T00:17:52;100731.56;;;16.70;100.00
58955;BME280;45815;52.334;5.024;2023-07-16T00:20:18;100724.56;;;16.62;100.00
58955;BME280;45815;52.334;5.024;2023-07-16T00:22:43;100735.16;;;16.62;100.00
58955;BME280;45815;52.334;5.024;2023-07-16T00:25:09;100724.56;;;16.62;100.00
58955;BME280;45815;52.334;5.024;2023-07-16T00:27:34;100724.59;;;16.56;100.00
58955;BME280;45815;52.334;5.024;2023-07-16T00:30:00;100723.69;;;16.59;100.00
58955;BME280;45815;52.334;5.024;2023-07-16T00:32:25;100724.56;;;16.59;100.00
58955;BME280;45815;52.334;5.024;2023-07-16T00:34:50;100720.16;;;16.57;100.00
58955;BME280;45815;52.334;5.024;2023-07-16T00:37:16;100721.94;;;16.55;100.00
58955;BME280;45815;52.334;5.024;2023-07-16T00:39:41;100722.84;;;16.55;100.00
58955;BME280;45815;52.334;5.024;2023-07-16T00:42:07;100726.41;;;16.51;100.00
58955;BME280;45815;52.334;5.024;2023-07-16T00:44:32;100728.19;;;16.49;100.00
58955;BME280;45815;52.334;5.024;2023-07-16T00:46:58;100722.00;;;16.45;100.00
58955;BME280;45815;52.334;5.024;2023-07-16T00:49:24;100723.78;;;16.46;100.00
58955;BME280;45815;52.334;5.024;2023-07-16T00:51:52;100728.25;;;16.41;100.00
58955;BME280;45815;52.334;5.024;2023-07-16T00:54:18;100722.03;;;16.42;100.00
58955;BME280;45815;52.334;5.024;2023-07-16T00:56:44;100722.03;;;16.42;100.00
58955;BME280;45815;52.334;5.024;2023-07-16T00:59:10;100718.56;;;16.39;100.00
58955;BME280;45815;52.334;5.024;2023-07-16T01:01:37;100735.31;;;16.38;100.00
58955;BME280;45815;52.334;5.024;2023-07-16T01:04:02;100730.88;;;16.40;100.00
58955;BME280;45815;52.334;5.024;2023-07-16T01:06:32;100731.78;;;16.37;100.00
58955;BME280;45815;52.334;5.024;2023-07-16T01:09:19;100740.72;;;16.22;100.00
58955;BME280;45815;52.334;5.024;2023-07-16T01:11:46;100738.88;;;16.34;100.00
58955;BME280;45815;52.334;5.024;2023-07-16T01:14:13;100738.88;;;16.34;100.00
58955;BME280;45815;52.334;5.024;2023-07-16T01:16:41;100745.94;;;16.35;100.00
58955;BME280;45815;52.334;5.024;2023-07-16T01:19:06;100744.19;;;16.31;100.00
58955;BME280;45815;52.334;5.024;2023-07-16T01:21:42;100737.16;;;16.28;100.00
58955;BME280;45815;52.334;5.024;2023-07-16T01:30:04;100730.97;;;16.28;100.00
58955;BME280;45815;52.334;5.024;2023-07-16T01:32:31;100743.28;;;16.33;100.00
58955;BME280;45815;52.334;5.024;2023-07-16T01:35:01;100741.50;;;16.35;100.00
58955;BME280;45815;52.334;5.024;2023-07-16T01:37:27;100727.47;;;16.22;100.00
58955;BME280;45815;52.334;5.024;2023-07-16T01:39:53;100733.59;;;16.31;100.00
58955;BME280;45815;52.334;5.024;2023-07-16T01:42:18;100736.22;;;16.35;100.00
58955;BME280;45815;52.334;5.024;2023-07-16T01:44:44;100734.47;;;16.31;100.00
58955;BME280;45815;52.334;5.024;2023-07-16T01:47:15;100738.88;;;16.37;100.00
58955;BME280;45815;52.334;5.024;2023-07-16T01:49:46;100737.97;;;16.36;100.00
58955;BME280;45815;52.334;5.024;2023-07-16T01:52:13;100744.16;;;16.35;100.00
58955;BME280;45815;52.334;5.024;2023-07-16T01:54:38;100745.91;;;16.36;100.00
58955;BME280;45815;52.334;5.024;2023-07-16T01:57:04;100739.75;;;16.39;100.00
58955;BME280;45815;52.334;5.024;2023-07-16T01:59:29;100741.50;;;16.37;100.00
58955;BME280;45815;52.334;5.024;2023-07-16T02:01:55;100734.44;;;16.39;100.00
58955;BME280;45815;52.334;5.024;2023-07-16T02:04:22;100739.75;;;16.39;100.00
58955;BME280;45815;52.334;5.024;2023-07-16T02:06:47;100734.41;;;16.42;100.00
58955;BME280;45815;52.334;5.024;2023-07-16T02:09:17;100733.53;;;16.40;100.00
58955;BME280;45815;52.334;5.024;2023-07-16T02:11:43;100725.59;;;16.41;100.00
58955;BME280;45815;52.334;5.024;2023-07-16T02:14:09;100735.28;;;16.41;100.00
58955;BME280;45815;52.334;5.024;2023-07-16T02:16:35;100731.75;;;16.42;100.00
58955;BME280;45815;52.334;5.024;2023-07-16T02:19:01;100735.28;;;16.44;100.00
58955;BME280;45815;52.334;5.024;2023-07-16T02:21:26;100733.50;;;16.43;100.00
58955;BME280;45815;52.334;5.024;2023-07-16T02:23:51;100734.38;;;16.46;100.00
58955;BME280;45815;52.334;5.024;2023-07-16T02:26:17;100727.31;;;16.45;100.00
58955;BME280;45815;52.334;5.024;2023-07-16T02:28:42;100733.44;;;16.52;100.00
58955;BME280;45815;52.334;5.024;2023-07-16T02:31:08;100729.94;;;16.50;100.00
58955;BME280;45815;52.334;5.024;2023-07-16T02:33:33;100693.00;;;16.29;100.00
58955;BME280;45815;52.334;5.024;2023-07-16T02:35:58;100728.16;;;16.52;100.00
58955;BME280;45815;52.334;5.024;2023-07-16T02:38:24;100724.59;;;16.56;100.00
58955;BME280;45815;52.334;5.024;2023-07-16T02:40:49;100715.75;;;16.57;100.00
58955;BME280;45815;52.334;5.024;2023-07-16T02:43:15;100714.88;;;16.58;100.00
58955;BME280;45815;52.334;5.024;2023-07-16T02:45:44;100720.16;;;16.57;100.00
58955;BME280;45815;52.334;5.024;2023-07-16T02:48:10;100730.78;;;16.54;100.00
58955;BME280;45815;52.334;5.024;2023-07-16T02:50:36;100726.34;;;16.57;100.00
58955;BME280;45815;52.334;5.024;2023-07-16T02:53:06;100727.28;;;16.53;100.00
58955;BME280;45815;52.334;5.024;2023-07-16T02:55:35;100732.53;;;16.55;100.00
58955;BME280;45815;52.334;5.024;2023-07-16T02:58:01;100742.31;;;16.51;100.00
58955;BME280;45815;52.334;5.024;2023-07-16T03:00:33;100730.78;;;16.52;100.00
58955;BME280;45815;52.334;5.024;2023-07-16T03:02:58;100736.97;;;16.53;100.00
58955;BME280;45815;52.334;5.024;2023-07-16T03:05:26;100742.31;;;16.48;100.00
58955;BME280;45815;52.334;5.024;2023-07-16T03:07:52;100740.53;;;16.53;100.00
58955;BME280;45815;52.334;5.024;2023-07-16T03:10:18;100738.78;;;16.49;100.00
58955;BME280;45815;52.334;5.024;2023-07-16T03:12:43;100758.19;;;16.51;100.00
58955;BME280;45815;52.334;5.024;2023-07-16T03:15:09;100746.69;;;16.52;100.00
58955;BME280;45815;52.334;5.024;2023-07-16T03:17:36;100751.13;;;16.53;100.00
58955;BME280;45815;52.334;5.024;2023-07-16T03:20:02;100756.34;;;16.59;100.00
58955;BME280;45815;52.334;5.024;2023-07-16T03:22:29;100749.31;;;16.58;100.00
58955;BME280;45815;52.334;5.024;2023-07-16T03:24:55;100748.44;;;16.56;100.00
58955;BME280;45815;52.334;5.024;2023-07-16T03:27:20;100760.78;;;16.60;100.00
58955;BME280;45815;52.334;5.024;2023-07-16T03:29:52;100759.00;;;16.61;100.00
58955;BME280;45815;52.334;5.024;2023-07-16T03:32:18;100752.91;;;16.51;100.00
58955;BME280;45815;52.334;5.024;2023-07-16T03:34:44;100768.75;;;16.60;100.00
58955;BME280;45815;52.334;5.024;2023-07-16T03:37:09;100761.66;;;16.61;100.00
58955;BME280;45815;52.334;5.024;2023-07-16T03:39:35;100766.09;;;16.60;100.00
58955;BME280;45815;52.334;5.024;2023-07-16T03:42:01;100767.88;;;16.58;100.00
58955;BME280;45815;52.334;5.024;2023-07-16T03:44:26;100773.16;;;16.57;100.00
58955;BME280;45815;52.334;5.024;2023-07-16T03:46:52;100774.06;;;16.54;100.00
58955;BME280;45815;52.334;5.024;2023-07-16T03:49:17;100779.38;;;16.54;100.00
58955;BME280;45815;52.334;5.024;2023-07-16T03:51:44;100786.44;;;16.54;100.00
58955;BME280;45815;52.334;5.024;2023-07-16T03:54:09;100775.03;;;16.44;100.00
58955;BME280;45815;52.334;5.024;2023-07-16T03:56:35;100783.88;;;16.41;100.00
58955;BME280;45815;52.334;5.024;2023-07-16T03:59:01;100790.91;;;16.41;100.00
58955;BME280;45815;52.334;5.024;2023-07-16T04:01:27;100798.03;;;16.37;100.00
58955;BME280;45815;52.334;5.024;2023-07-16T04:03:52;100793.63;;;16.32;100.00
58955;BME280;45815;52.334;5.024;2023-07-16T04:06:20;100807.69;;;16.43;100.00
58955;BME280;45815;52.334;5.024;2023-07-16T04:08:45;100807.69;;;16.44;100.00
58955;BME280;45815;52.334;5.024;2023-07-16T04:11:11;100815.63;;;16.51;100.00
58955;BME280;45815;52.334;5.024;2023-07-16T04:13:36;100813.84;;;16.50;100.00
58955;BME280;45815;52.334;5.024;2023-07-16T04:16:02;100811.16;;;16.54;100.00
58955;BME280;45815;52.334;5.024;2023-07-16T04:18:27;100814.66;;;16.59;100.00
58955;BME280;45815;52.334;5.024;2023-07-16T04:20:53;100811.09;;;16.63;100.00
58955;BME280;45815;52.334;5.024;2023-07-16T04:23:19;100817.28;;;16.65;100.00
58955;BME280;45815;52.334;5.024;2023-07-16T04:25:44;100809.31;;;16.68;100.00
58955;BME280;45815;52.334;5.024;2023-07-16T04:28:10;100801.34;;;16.72;100.00
58955;BME280;45815;52.334;5.024;2023-07-16T04:30:36;100812.78;;;16.74;100.00
58955;BME280;45815;52.334;5.024;2023-07-16T04:33:03;100812.78;;;16.75;100.00
58955;BME280;45815;52.334;5.024;2023-07-16T04:35:32;100811.06;;;16.79;100.00
58955;BME280;45815;52.334;5.024;2023-07-16T04:37:58;100819.84;;;16.82;100.00
58955;BME280;45815;52.334;5.024;2023-07-16T04:40:24;100833.06;;;16.85;100.00
58955;BME280;45815;52.334;5.024;2023-07-16T04:42:49;100817.16;;;16.85;100.00
58955;BME280;45815;52.334;5.024;2023-07-16T04:45:15;100836.63;;;16.86;100.00
58955;BME280;45815;52.334;5.024;2023-07-16T04:47:40;100824.22;;;16.90;100.00
58955;BME280;45815;52.334;5.024;2023-07-16T04:50:06;100831.22;;;16.97;100.00
58955;BME280;45815;52.334;5.024;2023-07-16T04:52:31;100817.09;;;16.96;100.00
58955;BME280;45815;52.334;5.024;2023-07-16T04:54:57;100832.91;;;17.10;100.00
58955;BME280;45815;52.334;5.024;2023-07-16T04:57:22;100827.59;;;17.10;100.00
58955;BME280;45815;52.334;5.024;2023-07-16T04:59:48;100823.19;;;17.07;100.00
58955;BME280;45815;52.334;5.024;2023-07-16T05:02:13;100831.13;;;17.11;100.00
58955;BME280;45815;52.334;5.024;2023-07-16T05:04:40;100830.25;;;17.08;100.00
58955;BME280;45815;52.334;5.024;2023-07-16T05:07:07;100838.22;;;17.12;100.00
58955;BME280;45815;52.334;5.024;2023-07-16T05:09:32;100839.94;;;17.14;100.00
58955;BME280;45815;52.334;5.024;2023-07-16T05:11:58;100839.94;;;17.14;100.00
58955;BME280;45815;52.334;5.024;2023-07-16T05:14:26;100832.88;;;17.16;100.00
58955;BME280;45815;52.334;5.024;2023-07-16T05:16:53;100835.41;;;17.27;100.00
58955;BME280;45815;52.334;5.024;2023-07-16T05:19:18;100837.13;;;17.34;100.00
58955;BME280;45815;52.334;5.024;2023-07-16T05:21:43;100830.06;;;17.30;100.00
58955;BME280;45815;52.334;5.024;2023-07-16T05:24:09;100847.81;;;17.28;100.00
58955;BME280;45815;52.334;5.024;2023-07-16T05:26:34;100839.75;;;17.36;100.00
58955;BME280;45815;52.334;5.024;2023-07-16T05:29:00;100848.59;;;17.36;100.00
58955;BME280;45815;52.334;5.024;2023-07-16T05:31:25;100849.44;;;17.41;100.00
58955;BME280;45815;52.334;5.024;2023-07-16T05:33:51;100844.06;;;17.46;100.00
58955;BME280;45815;52.334;5.024;2023-07-16T05:36:16;100841.38;;;17.52;100.00
58955;BME280;45815;52.334;5.024;2023-07-16T05:38:41;100843.16;;;17.50;100.00
58955;BME280;45815;52.334;5.024;2023-07-16T05:41:07;100860.88;;;17.49;100.00
58955;BME280;45815;52.334;5.024;2023-07-16T05:43:32;100839.69;;;17.43;100.00
58955;BME280;45815;52.334;5.024;2023-07-16T05:46:00;100851.09;;;17.55;100.00
58955;BME280;45815;52.334;5.024;2023-07-16T05:48:26;100852.00;;;17.52;100.00
58955;BME280;45815;52.334;5.024;2023-07-16T05:50:51;100851.00;;;17.64;100.00
58955;BME280;45815;52.334;5.024;2023-07-16T05:53:17;100854.53;;;17.63;100.00
58955;BME280;45815;52.334;5.024;2023-07-16T05:55:42;100869.63;;;17.61;100.00
58955;BME280;45815;52.334;5.024;2023-07-16T05:58:08;100868.75;;;17.56;100.00
58955;BME280;45815;52.334;5.024;2023-07-16T06:00:34;100854.72;;;17.44;100.00
58955;BME280;45815;52.334;5.024;2023-07-16T06:03:02;100885.59;;;17.56;100.00
58955;BME280;45815;52.334;5.024;2023-07-16T06:05:28;100870.50;;;17.60;100.00
58955;BME280;45815;52.334;5.024;2023-07-16T06:07:58;100870.44;;;17.66;100.00
58955;BME280;45815;52.334;5.024;2023-07-16T06:10:23;100898.69;;;17.73;100.00
58955;BME280;45815;52.334;5.024;2023-07-16T06:12:49;100880.97;;;17.72;100.00
58955;BME280;45815;52.334;5.024;2023-07-16T06:15:14;100872.09;;;17.76;100.00
58955;BME280;45815;52.334;5.024;2023-07-16T06:17:42;100874.69;;;17.85;100.00
58955;BME280;45815;52.334;5.024;2023-07-16T06:20:08;100860.56;;;17.85;100.00
58955;BME280;45815;52.334;5.024;2023-07-16T06:22:34;100872.81;;;17.98;100.00
58955;BME280;45815;52.334;5.024;2023-07-16T06:25:00;100887.81;;;18.01;100.00
58955;BME280;45815;52.334;5.024;2023-07-16T06:27:25;100888.69;;;18.03;100.00
58955;BME280;45815;52.334;5.024;2023-07-16T06:29:51;100901.91;;;18.07;100.00
58955;BME280;45815;52.334;5.024;2023-07-16T06:32:16;100896.63;;;18.04;100.00
58955;BME280;45815;52.334;5.024;2023-07-16T06:34:42;100898.34;;;18.10;100.00
58955;BME280;45815;52.334;5.024;2023-07-16T06:37:07;100908.13;;;18.05;100.00
58955;BME280;45815;52.334;5.024;2023-07-16T06:39:33;100916.03;;;18.11;100.00
58955;BME280;45815;52.334;5.024;2023-07-16T06:41:58;100914.25;;;18.13;100.00
58955;BME280;45815;52.334;5.024;2023-07-16T06:44:25;100923.03;;;18.18;100.00
58955;BME280;45815;52.334;5.024;2023-07-16T06:46:51;100935.41;;;18.22;100.00
58955;BME280;45815;52.334;5.024;2023-07-16T06:49:16;100927.44;;;18.21;100.00
58955;BME280;45815;52.334;5.024;2023-07-16T06:51:42;100930.03;;;18.25;100.00
58955;BME280;45815;52.334;5.024;2023-07-16T06:54:07;100934.38;;;18.35;100.00
58955;BME280;45815;52.334;5.024;2023-07-16T06:56:33;100929.94;;;18.33;100.00
58955;BME280;45815;52.334;5.024;2023-07-16T06:58:58;100930.88;;;18.30;100.00
58955;BME280;45815;52.334;5.024;2023-07-16T07:01:24;100941.59;;;18.24;100.00
58955;BME280;45815;52.334;5.024;2023-07-16T07:03:49;100942.41;;;18.29;100.00
58955;BME280;45815;52.334;5.024;2023-07-16T07:06:15;100937.03;;;18.35;100.00
58955;BME280;45815;52.334;5.024;2023-07-16T07:08:40;100940.53;;;18.38;100.00
58955;BME280;45815;52.334;5.024;2023-07-16T07:11:06;100945.84;;;18.38;100.00
58955;BME280;45815;52.334;5.024;2023-07-16T07:13:31;100956.41;;;18.44;100.00
58955;BME280;45815;52.334;5.024;2023-07-16T07:15:57;100951.00;;;18.53;100.00
58955;BME280;45815;52.334;5.024;2023-07-16T07:18:22;100951.00;;;18.54;100.00
58955;BME280;45815;52.334;5.024;2023-07-16T07:20:48;100953.66;;;18.53;100.00
58955;BME280;45815;52.334;5.024;2023-07-16T07:23:15;100948.28;;;18.58;100.00
58955;BME280;45815;52.334;5.024;2023-07-16T07:25:41;100937.69;;;18.54;100.00
58955;BME280;45815;52.334;5.024;2023-07-16T07:28:07;100947.47;;;18.49;100.00
58955;BME280;45815;52.334;5.024;2023-07-16T07:30:32;100956.31;;;18.53;100.00
58955;BME280;45815;52.334;5.024;2023-07-16T07:32:58;100960.66;;;18.59;100.00
58955;BME280;45815;52.334;5.024;2023-07-16T07:35:24;100972.09;;;18.68;100.00
58955;BME280;45815;52.334;5.024;2023-07-16T07:37:49;100962.16;;;18.84;100.00
58955;BME280;45815;52.334;5.024;2023-07-16T07:40:15;100976.19;;;18.95;100.00
58955;BME280;45815;52.334;5.024;2023-07-16T07:42:40;100978.78;;;18.98;100.00
58955;BME280;45815;52.334;5.024;2023-07-16T07:45:06;100984.09;;;19.00;100.00
58955;BME280;45815;52.334;5.024;2023-07-16T07:47:31;100982.25;;;19.05;100.00
58955;BME280;45815;52.334;5.024;2023-07-16T07:49:57;100988.44;;;19.06;100.00
58955;BME280;45815;52.334;5.024;2023-07-16T07:52:22;100985.84;;;19.04;100.00
58955;BME280;45815;52.334;5.024;2023-07-16T07:54:48;100992.84;;;19.10;100.00
58955;BME280;45815;52.334;5.024;2023-07-16T07:57:14;100988.31;;;19.15;100.00
58955;BME280;45815;52.334;5.024;2023-07-16T07:59:40;101010.59;;;19.11;100.00
58955;BME280;45815;52.334;5.024;2023-07-16T08:02:05;101003.41;;;19.17;100.00
58955;BME280;45815;52.334;5.024;2023-07-16T08:04:31;100992.75;;;19.17;100.00
58955;BME280;45815;52.334;5.024;2023-07-16T08:06:57;100998.06;;;19.17;100.00
58955;BME280;45815;52.334;5.024;2023-07-16T08:09:26;100996.28;;;19.16;100.00
58955;BME280;45815;52.334;5.024;2023-07-16T08:11:52;100954.16;;;18.87;100.00
58955;BME280;45815;52.334;5.024;2023-07-16T08:14:17;100991.03;;;19.13;100.00
58955;BME280;45815;52.334;5.024;2023-07-16T08:16:43;101010.34;;;19.29;100.00
58955;BME280;45815;52.334;5.024;2023-07-16T08:19:08;100996.09;;;19.32;100.00
58955;BME280;45815;52.334;5.024;2023-07-16T08:21:35;100997.56;;;19.53;100.00
58955;BME280;45815;52.334;5.024;2023-07-16T08:24:01;101010.75;;;19.59;100.00
58955;BME280;45815;52.334;5.024;2023-07-16T08:26:26;100996.50;;;19.63;100.00
58955;BME280;45815;52.334;5.024;2023-07-16T08:28:52;101011.22;;;19.87;100.00
58955;BME280;45815;52.334;5.024;2023-07-16T08:31:18;101021.81;;;19.92;100.00
58955;BME280;45815;52.334;5.024;2023-07-16T08:33:43;101010.47;;;19.79;100.00
58955;BME280;45815;52.334;5.024;2023-07-16T08:36:09;101014.22;;;19.66;100.00
58955;BME280;45815;52.334;5.024;2023-07-16T08:38:35;101029.38;;;19.60;100.00
58955;BME280;45815;52.334;5.024;2023-07-16T08:41:00;101026.91;;;19.47;100.00
58955;BME280;45815;52.334;5.024;2023-07-16T08:43:28;100986.44;;;19.23;100.00
58955;BME280;45815;52.334;5.024;2023-07-16T08:45:54;101014.72;;;19.32;100.00
58955;BME280;45815;52.334;5.024;2023-07-16T08:48:21;101030.44;;;19.49;100.00
58955;BME280;45815;52.334;5.024;2023-07-16T08:50:48;101027.84;;;19.44;100.00
58955;BME280;45815;52.334;5.024;2023-07-16T08:53:17;101029.66;;;19.42;100.00
58955;BME280;45815;52.334;5.024;2023-07-16T08:55:44;101035.03;;;19.36;100.00
58955;BME280;45815;52.334;5.024;2023-07-16T08:58:12;101026.97;;;19.44;100.00
58955;BME280;45815;52.334;5.024;2023-07-16T09:00:40;101040.25;;;19.45;100.00
58955;BME280;45815;52.334;5.024;2023-07-16T09:03:06;101042.09;;;19.38;100.00
58955;BME280;45815;52.334;5.024;2023-07-16T09:05:33;101047.22;;;19.54;100.00
58955;BME280;45815;52.334;5.024;2023-07-16T09:08:06;101046.94;;;19.75;100.00
58955;BME280;45815;52.334;5.024;2023-07-16T09:10:31;101057.13;;;20.05;100.00
58955;BME280;45815;52.334;5.024;2023-07-16T09:12:58;101055.25;;;20.10;100.00
58955;BME280;45815;52.334;5.024;2023-07-16T09:15:24;101057.69;;;20.23;100.00
58955;BME280;45815;52.334;5.024;2023-07-16T09:17:49;101056.66;;;20.32;100.00
58955;BME280;45815;52.334;5.024;2023-07-16T09:20:16;101050.47;;;20.30;100.00
58955;BME280;45815;52.334;5.024;2023-07-16T09:22:43;101054.81;;;20.34;100.00
58955;BME280;45815;52.334;5.024;2023-07-16T09:25:09;101062.56;;;20.48;100.00
58955;BME280;45815;52.334;5.024;2023-07-16T09:27:37;101051.72;;;20.60;100.00
58955;BME280;45815;52.334;5.024;2023-07-16T09:30:04;101063.03;;;20.72;100.00
58955;BME280;45815;52.334;5.024;2023-07-16T09:32:37;101064.66;;;20.82;100.00
58955;BME280;45815;52.334;5.024;2023-07-16T09:35:15;101068.19;;;20.82;100.00
58955;BME280;45815;52.334;5.024;2023-07-16T09:37:42;101065.84;;;21.09;100.00
58955;BME280;45815;52.334;5.024;2023-07-16T09:40:09;101067.69;;;21.49;100.00
58955;BME280;45815;52.334;5.024;2023-07-16T09:42:40;101076.44;;;21.56;100.00
58955;BME280;45815;52.334;5.024;2023-07-16T09:45:07;101074.19;;;21.36;100.00
58955;BME280;45815;52.334;5.024;2023-07-16T09:47:35;101078.31;;;21.10;100.00
58955;BME280;45815;52.334;5.024;2023-07-16T09:50:02;101074.03;;;21.01;100.00
58955;BME280;45815;52.334;5.024;2023-07-16T09:52:28;101086.66;;;20.93;100.00
58955;BME280;45815;52.334;5.024;2023-07-16T09:54:55;101104.41;;;20.96;100.00
58955;BME280;45815;52.334;5.024;2023-07-16T09:57:26;101104.13;;;20.63;100.00
58955;BME280;45815;52.334;5.024;2023-07-16T09:59:53;101109.56;;;20.57;100.00
58955;BME280;45815;52.334;5.024;2023-07-16T10:02:21;101100.81;;;20.49;100.00
58955;BME280;45815;52.334;5.024;2023-07-16T10:04:47;101103.59;;;20.41;100.00
58955;BME280;45815;52.334;5.024;2023-07-16T10:07:22;101113.53;;;20.31;100.00
58955;BME280;45815;52.334;5.024;2023-07-16T10:09:57;101107.38;;;20.28;100.00
58955;BME280;45815;52.334;5.024;2023-07-16T10:12:24;101111.63;;;20.39;100.00
58955;BME280;45815;52.334;5.024;2023-07-16T10:14:55;101115.19;;;20.38;100.00
58955;BME280;45815;52.334;5.024;2023-07-16T10:17:24;101116.97;;;20.39;100.00
58955;BME280;45815;52.334;5.024;2023-07-16T10:19:58;101128.63;;;20.32;100.00
58955;BME280;45815;52.334;5.024;2023-07-16T10:22:32;101132.34;;;20.22;100.00
58955;BME280;45815;52.334;5.024;2023-07-16T10:24:58;101133.19;;;20.24;100.00
58955;BME280;45815;52.334;5.024;2023-07-16T10:27:30;101140.03;;;20.40;100.00
58955;BME280;45815;52.334;5.024;2023-07-16T10:29:58;101134.44;;;20.59;100.00
58955;BME280;45815;52.334;5.024;2023-07-16T10:32:28;101110.94;;;20.79;100.00
58955;BME280;45815;52.334;5.024;2023-07-16T10:34:54;101131.13;;;21.38;100.00
58955;BME280;45815;52.334;5.024;2023-07-16T10:37:19;101137.84;;;21.57;100.00
58955;BME280;45815;52.334;5.024;2023-07-16T10:39:50;101132.59;;;21.54;100.00
58955;BME280;45815;52.334;5.024;2023-07-16T10:42:16;101030.44;;;20.57;100.00
58955;BME280;45815;52.334;5.024;2023-07-16T10:44:43;101142.28;;;21.13;100.00
58955;BME280;45815;52.334;5.024;2023-07-16T10:47:10;101143.59;;;20.91;100.00
58955;BME280;45815;52.334;5.024;2023-07-16T10:49:43;101160.78;;;20.77;100.00
58955;BME280;45815;52.334;5.024;2023-07-16T10:52:09;101145.28;;;20.96;100.00
58955;BME280;45815;52.334;5.024;2023-07-16T10:54:34;101135.25;;;21.54;100.00
58955;BME280;45815;52.334;5.024;2023-07-16T10:57:00;101148.69;;;21.91;100.00
58955;BME280;45815;52.334;5.024;2023-07-16T10:59:25;101144.75;;;22.45;100.00
58955;BME280;45815;52.334;5.024;2023-07-16T11:01:51;101138.34;;;22.85;100.00
58955;BME280;45815;52.334;5.024;2023-07-16T11:04:16;101150.91;;;23.16;100.00
58955;BME280;45815;52.334;5.024;2023-07-16T11:06:42;101152.25;;;23.31;100.00
58955;BME280;45815;52.334;5.024;2023-07-16T11:09:09;101140.47;;;23.36;100.00
58955;BME280;45815;52.334;5.024;2023-07-16T11:11:34;101142.03;;;23.14;100.00
58955;BME280;45815;52.334;5.024;2023-07-16T11:14:03;101175.72;;;22.88;100.00
58955;BME280;45815;52.334;5.024;2023-07-16T11:16:35;101158.63;;;22.60;100.00
58955;BME280;45815;52.334;5.024;2023-07-16T11:19:04;101168.00;;;22.42;100.00
58955;BME280;45815;52.334;5.024;2023-07-16T11:21:33;101162.69;;;22.74;100.00
58955;BME280;45815;52.334;5.024;2023-07-16T11:24:12;101161.25;;;22.61;100.00
58955;BME280;45815;52.334;5.024;2023-07-16T11:26:40;101175.31;;;23.04;100.00
58955;BME280;45815;52.334;5.024;2023-07-16T11:29:14;101148.97;;;23.21;100.00
58955;BME280;45815;52.334;5.024;2023-07-16T11:31:40;101152.47;;;23.23;100.00
58955;BME280;45815;52.334;5.024;2023-07-16T11:34:15;101165.88;;;23.23;100.00
58955;BME280;45815;52.334;5.024;2023-07-16T11:36:41;101164.72;;;23.32;100.00
58955;BME280;45815;52.334;5.024;2023-07-16T11:39:07;101167.09;;;23.11;97.98
58955;BME280;45815;52.334;5.024;2023-07-16T11:41:32;101178.16;;;22.97;97.25
58955;BME280;45815;52.334;5.024;2023-07-16T11:44:00;101184.66;;;22.87;97.94
58955;BME280;45815;52.334;5.024;2023-07-16T11:46:31;101181.31;;;22.79;98.73
58955;BME280;45815;52.334;5.024;2023-07-16T11:48:57;101191.69;;;22.91;99.34
58955;BME280;45815;52.334;5.024;2023-07-16T11:51:22;101204.97;;;22.62;98.39
58955;BME280;45815;52.334;5.024;2023-07-16T11:53:48;101204.88;;;22.65;100.00
58955;BME280;45815;52.334;5.024;2023-07-16T11:56:13;101217.56;;;22.57;100.00
58955;BME280;45815;52.334;5.024;2023-07-16T11:58:39;101201.38;;;22.97;100.00
58955;BME280;45815;52.334;5.024;2023-07-16T12:01:04;101187.72;;;23.08;99.81
58955;BME280;45815;52.334;5.024;2023-07-16T12:03:33;101226.25;;;23.02;96.93
58955;BME280;45815;52.334;5.024;2023-07-16T12:05:59;101207.28;;;23.10;95.17
58955;BME280;45815;52.334;5.024;2023-07-16T12:08:24;101198.09;;;23.51;95.12
58955;BME280;45815;52.334;5.024;2023-07-16T12:10:50;101193.91;;;23.72;94.04
58955;BME280;45815;52.334;5.024;2023-07-16T12:13:18;101199.88;;;23.84;94.41
58955;BME280;45815;52.334;5.024;2023-07-16T12:15:43;101181.47;;;24.28;92.54
58955;BME280;45815;52.334;5.024;2023-07-16T12:18:09;101201.34;;;24.50;91.27
58955;BME280;45815;52.334;5.024;2023-07-16T12:20:35;101197.34;;;24.63;90.53
58955;BME280;45815;52.334;5.024;2023-07-16T12:23:01;101208.31;;;24.82;89.43
58955;BME280;45815;52.334;5.024;2023-07-16T12:28:14;101209.38;;;24.77;86.50
58955;BME280;45815;52.334;5.024;2023-07-16T12:30:39;101220.38;;;24.14;85.99
58955;BME280;45815;52.334;5.024;2023-07-16T12:33:05;101225.50;;;24.20;87.17
58955;BME280;45815;52.334;5.024;2023-07-16T12:35:30;101224.31;;;24.31;88.06
58955;BME280;45815;52.334;5.024;2023-07-16T12:37:55;101227.69;;;24.37;86.53
58955;BME280;45815;52.334;5.024;2023-07-16T12:40:24;101229.47;;;24.37;85.44
58955;BME280;45815;52.334;5.024;2023-07-16T12:42:49;101243.81;;;24.36;84.53
58955;BME280;45815;52.334;5.024;2023-07-16T12:45:15;101236.69;;;24.35;84.35